createdAt,value
2019-03-06T00:00:58.106Z,5.50
2019-03-06T00:04:02.463Z,5.50
2019-03-06T00:07:06.801Z,5.50
2019-03-06T00:10:24.336Z,5.60
2019-03-06T00:13:28.592Z,5.60
2019-03-06T00:16:32.998Z,5.60
2019-03-06T00:19:37.267Z,5.60
2019-03-06T00:22:41.648Z,5.60
2019-03-06T00:25:46.003Z,5.60
2019-03-06T00:28:50.380Z,5.60
2019-03-06T00:31:54.600Z,5.60
2019-03-06T00:35:00.762Z,5.60
2019-03-06T00:38:05.112Z,5.60
2019-03-06T00:41:28.412Z,5.60
2019-03-06T00:44:32.760Z,5.60
2019-03-06T00:47:37.114Z,5.60
2019-03-06T00:50:41.459Z,5.60
2019-03-06T00:53:45.665Z,5.60
2019-03-06T00:56:49.953Z,5.60
2019-03-06T00:59:54.364Z,5.60
2019-03-06T01:02:58.697Z,5.60
2019-03-06T01:06:04.363Z,5.50
2019-03-06T01:09:09.409Z,5.50
2019-03-06T01:12:13.778Z,5.50
2019-03-06T01:15:18.236Z,5.50
2019-03-06T01:18:22.766Z,5.50
2019-03-06T01:21:27.096Z,5.50
2019-03-06T01:24:31.463Z,5.50
2019-03-06T01:27:35.805Z,5.50
2019-03-06T01:30:40.104Z,5.50
2019-03-06T01:33:49.463Z,5.50
2019-03-06T01:37:02.920Z,5.50
2019-03-06T01:40:24.272Z,5.50
2019-03-06T01:43:39.467Z,5.50
2019-03-06T01:46:43.815Z,5.50
2019-03-06T01:49:48.092Z,5.40
2019-03-06T01:52:52.267Z,5.40
2019-03-06T01:55:56.550Z,5.40
2019-03-06T01:59:01.104Z,5.30
2019-03-06T02:02:05.664Z,5.30
2019-03-06T02:05:11.347Z,5.20
2019-03-06T02:08:17.412Z,5.30
2019-03-06T02:11:21.662Z,5.20
2019-03-06T02:14:26.384Z,5.10
2019-03-06T02:17:30.639Z,5.10
2019-03-06T02:20:35.130Z,5.10
2019-03-06T02:23:39.420Z,5.10
2019-03-06T02:26:43.714Z,5.10
2019-03-06T02:29:48.052Z,5.10
2019-03-06T02:32:52.725Z,5.10
2019-03-06T02:35:57.054Z,5.10
2019-03-06T02:39:01.424Z,5.10
2019-03-06T02:42:05.700Z,5.10
2019-03-06T02:45:12.764Z,5.10
2019-03-06T02:48:17.013Z,5.10
2019-03-06T02:51:21.282Z,5.10
2019-03-06T02:54:25.642Z,5.10
2019-03-06T02:57:29.982Z,5.20
2019-03-06T03:00:59.203Z,5.20
2019-03-06T03:04:25.340Z,5.20
2019-03-06T03:07:29.656Z,5.20
2019-03-06T03:10:33.973Z,5.20
2019-03-06T03:13:38.518Z,5.20
2019-03-06T03:16:42.806Z,5.20
2019-03-06T03:19:47.043Z,5.20
2019-03-06T03:22:51.325Z,5.30
2019-03-06T03:25:55.657Z,5.30
2019-03-06T03:28:59.970Z,5.30
2019-03-06T03:32:04.375Z,5.30
2019-03-06T03:35:09.321Z,5.30
2019-03-06T03:38:13.655Z,5.30
2019-03-06T03:41:18.005Z,5.30
2019-03-06T03:44:22.395Z,5.30
2019-03-06T03:47:26.676Z,5.30
2019-03-06T03:50:31.015Z,5.40
2019-03-06T03:53:35.376Z,5.40
2019-03-06T03:56:40.006Z,5.30
2019-03-06T03:59:44.357Z,5.30
2019-03-06T04:02:48.781Z,5.30
2019-03-06T04:05:53.109Z,5.30
2019-03-06T04:08:57.365Z,5.30
2019-03-06T04:12:01.740Z,5.30
2019-03-06T04:15:07.375Z,5.30
2019-03-06T04:18:11.877Z,5.20
2019-03-06T04:21:16.128Z,5.20
2019-03-06T04:24:20.427Z,5.10
2019-03-06T04:27:24.771Z,5.10
2019-03-06T04:30:29.058Z,5.10
2019-03-06T04:33:33.267Z,5.10
2019-03-06T04:36:37.559Z,5.00
2019-03-06T04:39:41.895Z,5.00
2019-03-06T04:42:46.252Z,4.90
2019-03-06T04:45:50.587Z,4.90
2019-03-06T04:48:54.797Z,4.80
2019-03-06T04:51:59.135Z,4.80
2019-03-06T04:55:03.431Z,4.80
2019-03-06T04:58:07.705Z,4.80
2019-03-06T05:01:12.198Z,4.70
2019-03-06T05:04:16.451Z,4.70
2019-03-06T05:07:20.764Z,4.70
2019-03-06T05:10:25.103Z,4.60
2019-03-06T05:13:29.395Z,4.60
2019-03-06T05:16:58.498Z,4.60
2019-03-06T05:20:02.994Z,4.50
2019-03-06T05:23:07.363Z,4.50
2019-03-06T05:26:11.648Z,4.50
2019-03-06T05:29:15.904Z,4.40
2019-03-06T05:32:34.211Z,4.40
2019-03-06T05:36:22.982Z,4.30
2019-03-06T05:39:27.372Z,4.30
2019-03-06T05:42:31.702Z,4.30
2019-03-06T05:45:36.076Z,4.30
2019-03-06T05:48:40.702Z,4.20
2019-03-06T05:51:45.002Z,4.20
2019-03-06T05:54:49.276Z,4.10
2019-03-06T05:57:53.635Z,4.10
2019-03-06T06:00:58.190Z,4.10
2019-03-06T06:04:02.560Z,4.10
2019-03-06T06:07:06.921Z,4.10
2019-03-06T06:10:12.112Z,4.10
2019-03-06T06:13:16.456Z,4.10
2019-03-06T06:16:20.748Z,4.00
2019-03-06T06:19:25.028Z,4.10
2019-03-06T06:22:51.327Z,4.10
2019-03-06T06:25:55.656Z,4.10
2019-03-06T06:29:00.033Z,4.10
2019-03-06T06:32:04.355Z,4.10
2019-03-06T06:35:09.196Z,4.10
2019-03-06T06:38:13.734Z,4.10
2019-03-06T06:41:18.047Z,4.10
2019-03-06T06:44:22.423Z,4.20
2019-03-06T06:47:26.716Z,4.20
2019-03-06T06:50:30.986Z,4.20
2019-03-06T06:53:38.680Z,4.20
2019-03-06T06:57:20.606Z,4.30
2019-03-06T07:01:18.894Z,4.40
2019-03-06T07:05:31.401Z,4.40
2019-03-06T07:08:49.298Z,4.50
2019-03-06T07:12:05.512Z,4.60
2019-03-06T07:15:31.768Z,4.70
2019-03-06T07:19:01.103Z,4.70
2019-03-06T07:22:26.095Z,4.70
2019-03-06T07:26:01.779Z,4.80
2019-03-06T07:29:21.581Z,4.80
2019-03-06T07:32:43.707Z,4.90
2019-03-06T07:36:13.388Z,4.90
2019-03-06T07:39:26.942Z,5.00
2019-03-06T07:42:49.271Z,5.00
2019-03-06T07:46:07.695Z,5.10
2019-03-06T07:49:19.280Z,5.10
2019-03-06T07:52:35.035Z,5.20
2019-03-06T07:55:49.810Z,5.20
2019-03-06T07:58:57.313Z,5.20
2019-03-06T08:02:05.692Z,5.30
2019-03-06T08:05:11.683Z,5.30
2019-03-06T08:08:16.053Z,5.40
2019-03-06T08:11:45.385Z,5.50
2019-03-06T08:15:26.898Z,5.50
2019-03-06T08:18:50.186Z,5.60
2019-03-06T08:22:04.075Z,5.70
2019-03-06T08:25:26.459Z,5.70
2019-03-06T08:28:30.829Z,5.80
2019-03-06T08:31:41.099Z,5.80
2019-03-06T08:34:45.397Z,5.90
2019-03-06T08:37:49.664Z,6.00
2019-03-06T08:41:03.561Z,6.00
2019-03-06T08:43:59.931Z,6.10
2019-03-06T08:47:29.316Z,6.20
2019-03-06T08:50:55.396Z,6.30
2019-03-06T08:54:27.757Z,6.30
2019-03-06T08:57:54.167Z,6.40
2019-03-06T09:01:33.948Z,6.50
2019-03-06T09:04:57.386Z,6.60
2019-03-06T09:08:20.691Z,6.70
2019-03-06T09:11:42.865Z,6.80
2019-03-06T09:15:08.939Z,6.90
2019-03-06T09:18:35.263Z,7.00
2019-03-06T09:22:07.664Z,7.10
2019-03-06T09:25:26.020Z,7.20
2019-03-06T09:28:42.479Z,7.20
2019-03-06T09:32:07.083Z,7.30
2019-03-06T09:35:42.848Z,7.30
2019-03-06T09:38:59.991Z,7.40
2019-03-06T09:50:25.883Z,7.70
2019-03-06T10:01:07.156Z,7.90
2019-03-06T10:04:20.691Z,8.00
2019-03-06T10:07:44.761Z,8.10
2019-03-06T10:11:01.176Z,8.20
2019-03-06T10:14:16.854Z,8.40
2019-03-06T10:17:46.090Z,8.60
2019-03-06T10:20:50.363Z,8.80
2019-03-06T10:23:54.735Z,9.10
2019-03-06T10:26:59.090Z,9.30
2019-03-06T10:30:05.054Z,9.40
2019-03-06T10:33:09.409Z,9.50
2019-03-06T10:36:13.768Z,9.60
2019-03-06T10:39:18.145Z,9.80
2019-03-06T10:42:22.514Z,10.00
2019-03-06T10:45:26.867Z,10.20
2019-03-06T10:48:31.551Z,10.40
2019-03-06T10:51:35.887Z,10.60
2019-03-06T10:54:44.703Z,10.80
2019-03-06T10:57:46.251Z,11.10
2019-03-06T11:00:52.912Z,11.20
2019-03-06T11:04:15.004Z,11.40
2019-03-06T11:07:20.462Z,11.50
2019-03-06T11:10:26.753Z,11.60
2019-03-06T11:13:31.655Z,11.80
2019-03-06T11:16:40.954Z,11.90
2019-03-06T11:19:42.212Z,12.00
2019-03-06T11:22:46.486Z,11.90
2019-03-06T11:25:50.844Z,11.90
2019-03-06T11:28:55.217Z,11.90
2019-03-06T11:31:59.610Z,11.90
2019-03-06T11:35:04.104Z,11.90
2019-03-06T11:38:09.116Z,11.90
2019-03-06T11:41:13.459Z,12.00
2019-03-06T11:44:17.769Z,12.10
2019-03-06T11:47:22.132Z,12.30
2019-03-06T11:50:26.512Z,12.50
2019-03-06T11:53:32.848Z,12.70
2019-03-06T11:56:36.973Z,12.80
2019-03-06T11:59:41.330Z,13.00
2019-03-06T12:02:45.902Z,13.20
2019-03-06T12:05:50.863Z,13.30
2019-03-06T12:08:55.147Z,13.50
2019-03-06T12:12:00.087Z,13.60
2019-03-06T12:15:05.284Z,13.80
2019-03-06T12:18:09.626Z,13.90
2019-03-06T12:21:14.023Z,14.00
2019-03-06T12:24:18.423Z,14.10
2019-03-06T12:27:22.743Z,14.20
2019-03-06T12:30:27.193Z,14.30
2019-03-06T12:33:31.557Z,14.50
2019-03-06T12:36:36.240Z,14.60
2019-03-06T12:39:40.687Z,14.70
2019-03-06T12:42:45.023Z,14.80
2019-03-06T12:46:22.959Z,14.80
2019-03-06T12:49:22.850Z,14.90
2019-03-06T12:52:27.280Z,15.00
2019-03-06T12:55:31.772Z,15.20
2019-03-06T12:58:36.242Z,15.20
2019-03-06T13:01:40.632Z,15.30
2019-03-06T13:04:44.929Z,15.40
2019-03-06T13:07:49.201Z,15.40
2019-03-06T13:10:53.632Z,15.50
2019-03-06T13:13:58.000Z,15.60
2019-03-06T13:17:02.380Z,15.60
2019-03-06T13:20:08.984Z,15.70
2019-03-06T13:23:13.905Z,15.80
2019-03-06T13:26:18.136Z,15.80
2019-03-06T13:29:22.497Z,15.90
2019-03-06T13:32:33.305Z,15.90
2019-03-06T13:35:38.299Z,15.90
2019-03-06T13:38:42.672Z,15.90
2019-03-06T13:41:47.110Z,15.90
2019-03-06T13:44:53.282Z,15.90
2019-03-06T13:47:57.593Z,16.00
2019-03-06T13:51:01.947Z,16.00
2019-03-06T13:54:06.730Z,16.00
2019-03-06T13:57:11.090Z,15.90
2019-03-06T14:00:17.142Z,15.90
2019-03-06T14:03:21.501Z,15.90
2019-03-06T14:06:26.166Z,15.90
2019-03-06T14:09:30.505Z,15.80
2019-03-06T14:12:35.181Z,15.80
2019-03-06T14:15:39.530Z,15.70
2019-03-06T14:18:44.109Z,15.70
2019-03-06T14:21:48.586Z,15.60
2019-03-06T14:24:53.182Z,15.60
2019-03-06T14:27:57.563Z,15.60
2019-03-06T14:31:01.924Z,15.50
2019-03-06T14:34:06.821Z,15.50
2019-03-06T14:37:11.280Z,15.40
2019-03-06T14:40:21.703Z,15.30
2019-03-06T14:43:29.205Z,15.30
2019-03-06T14:46:33.556Z,15.20
2019-03-06T14:49:37.874Z,15.20
2019-03-06T14:52:42.250Z,15.00
2019-03-06T14:55:46.717Z,15.00
2019-03-06T14:58:51.042Z,14.90
2019-03-06T15:01:55.366Z,14.80
2019-03-06T15:05:00.042Z,14.70
2019-03-06T15:08:06.471Z,14.60
2019-03-06T15:11:10.811Z,14.60
2019-03-06T15:14:15.571Z,14.40
2019-03-06T15:17:19.920Z,14.40
2019-03-06T15:20:24.845Z,14.20
2019-03-06T15:23:29.199Z,14.10
2019-03-06T15:26:33.646Z,14.00
2019-03-06T15:29:38.019Z,13.80
2019-03-06T15:32:42.401Z,13.70
2019-03-06T15:35:46.763Z,13.60
2019-03-06T15:38:51.055Z,13.50
2019-03-06T15:42:00.533Z,13.40
2019-03-06T15:45:01.969Z,13.30
2019-03-06T15:48:09.338Z,13.10
2019-03-06T15:51:13.834Z,13.00
2019-03-06T15:54:18.621Z,12.80
2019-03-06T15:57:23.016Z,12.70
2019-03-06T16:00:45.751Z,12.50
2019-03-06T16:03:43.525Z,12.40
2019-03-06T16:06:53.964Z,12.20
2019-03-06T16:09:55.289Z,12.00
2019-03-06T16:12:59.764Z,11.80
2019-03-06T16:16:04.523Z,11.70
2019-03-06T16:19:20.763Z,11.50
2019-03-06T16:22:26.320Z,11.40
2019-03-06T16:25:36.905Z,11.20
2019-03-06T16:28:37.730Z,11.10
2019-03-06T16:31:42.388Z,10.90
2019-03-06T16:34:46.902Z,10.80
2019-03-06T16:37:51.401Z,10.60
2019-03-06T16:40:55.789Z,10.40
2019-03-06T16:44:00.185Z,10.30
2019-03-06T16:47:06.973Z,10.20
2019-03-06T16:50:15.973Z,10.00
2019-03-06T16:53:19.203Z,9.80
2019-03-06T16:56:23.554Z,9.70
2019-03-06T16:59:27.959Z,9.60
2019-03-06T17:02:32.344Z,9.40
2019-03-06T17:05:36.741Z,9.30
2019-03-06T17:08:41.174Z,9.20
2019-03-06T17:11:45.608Z,9.10
2019-03-06T17:14:49.967Z,8.90
2019-03-06T17:17:54.959Z,8.80
2019-03-06T17:20:59.309Z,8.70
2019-03-06T17:24:03.710Z,8.50
2019-03-06T17:27:08.728Z,8.40
2019-03-06T17:30:20.057Z,8.40
2019-03-06T17:33:24.703Z,8.20
2019-03-06T17:36:29.257Z,8.10
2019-03-06T17:39:33.657Z,8.00
2019-03-06T17:42:38.476Z,7.90
2019-03-06T17:45:43.550Z,7.80
2019-03-06T17:48:49.627Z,7.70
2019-03-06T17:51:54.123Z,7.60
2019-03-06T17:55:00.836Z,7.50
2019-03-06T17:58:05.869Z,7.40
2019-03-06T18:01:17.841Z,7.30
2019-03-06T18:04:25.150Z,7.20
2019-03-06T18:07:31.145Z,7.10
2019-03-06T18:10:35.561Z,7.00
2019-03-06T18:13:40.131Z,6.90
2019-03-06T18:16:44.613Z,6.80
2019-03-06T18:19:49.183Z,6.80
2019-03-06T18:22:55.231Z,6.70
2019-03-06T18:25:59.860Z,6.60
2019-03-06T18:29:04.249Z,6.50
2019-03-06T18:32:08.964Z,6.40
2019-03-06T18:35:14.223Z,6.00
2019-03-06T18:38:18.798Z,5.80
2019-03-06T18:41:23.263Z,5.60
2019-03-06T18:44:27.673Z,5.50
2019-03-06T18:47:32.050Z,5.40
2019-03-06T18:50:36.523Z,5.10
2019-03-06T18:53:40.895Z,4.90
2019-03-06T18:56:46.242Z,5.10
2019-03-06T18:59:50.634Z,5.10
2019-03-06T19:02:55.043Z,5.10
2019-03-06T19:05:59.427Z,5.20
2019-03-06T19:09:05.515Z,5.10
2019-03-06T19:12:09.792Z,5.10
2019-03-06T19:15:16.268Z,5.10
2019-03-06T19:18:20.633Z,5.10
2019-03-06T19:21:25.360Z,5.10
2019-03-06T19:24:31.025Z,5.00
2019-03-06T19:27:35.889Z,4.90
2019-03-06T19:30:40.881Z,4.90
2019-03-06T19:33:45.876Z,4.90
2019-03-06T19:36:50.260Z,4.90
2019-03-06T19:39:55.030Z,4.80
2019-03-06T19:42:59.417Z,4.80
2019-03-06T19:46:04.499Z,4.80
2019-03-06T19:49:09.312Z,4.70
2019-03-06T19:52:13.881Z,4.80
2019-03-06T19:55:19.019Z,4.70
2019-03-06T19:58:23.469Z,4.70
2019-03-06T20:01:27.903Z,4.70
2019-03-06T20:04:32.294Z,4.60
2019-03-06T20:07:36.844Z,4.60
2019-03-06T20:10:41.787Z,4.60
2019-03-06T20:13:46.168Z,4.50
2019-03-06T20:16:50.873Z,4.60
2019-03-06T20:19:55.228Z,4.50
2019-03-06T20:22:59.791Z,4.50
2019-03-06T20:26:13.827Z,4.50
2019-03-06T20:29:12.938Z,4.50
2019-03-06T20:32:17.306Z,4.50
2019-03-06T20:35:22.804Z,4.40
2019-03-06T20:38:27.362Z,4.40
2019-03-06T20:41:31.778Z,4.40
2019-03-06T20:44:38.476Z,4.40
2019-03-06T20:47:43.064Z,4.40
2019-03-06T20:50:47.408Z,4.40
2019-03-06T20:53:51.863Z,4.40
2019-03-06T20:56:56.531Z,4.30
2019-03-06T21:00:00.847Z,4.30
2019-03-06T21:03:07.013Z,4.20
2019-03-06T21:06:11.437Z,4.20
2019-03-06T21:09:17.114Z,4.20
2019-03-06T21:12:21.873Z,4.20
2019-03-06T21:15:26.272Z,4.10
2019-03-06T21:18:30.653Z,4.10
2019-03-06T21:21:35.154Z,4.10
2019-03-06T21:24:39.859Z,4.10
2019-03-06T21:27:44.233Z,4.00
2019-03-06T21:30:48.731Z,4.00
2019-03-06T21:33:53.816Z,4.00
2019-03-06T21:36:58.286Z,3.90
2019-03-06T21:40:02.670Z,3.90
2019-03-06T21:43:07.055Z,3.90
2019-03-06T21:46:11.425Z,3.80
2019-03-06T21:49:15.816Z,3.80
2019-03-06T21:52:20.169Z,3.80
2019-03-06T21:55:27.638Z,3.80
2019-03-06T21:58:32.080Z,3.70
2019-03-06T22:01:36.486Z,3.70
2019-03-06T22:04:45.256Z,3.70
2019-03-06T22:07:50.860Z,3.70
2019-03-06T22:10:55.831Z,3.70
2019-03-06T22:14:00.244Z,3.70
2019-03-06T22:17:04.635Z,3.70
2019-03-06T22:20:11.604Z,3.70
2019-03-06T22:23:15.972Z,3.60
2019-03-06T22:26:20.344Z,3.70
2019-03-06T22:29:24.690Z,3.60
2019-03-06T22:32:29.106Z,3.60
2019-03-06T22:35:33.457Z,3.60
2019-03-06T22:38:38.032Z,3.60
2019-03-06T22:41:42.429Z,3.60
2019-03-06T22:44:46.759Z,3.60
2019-03-06T22:47:51.049Z,3.60
2019-03-06T22:50:55.348Z,3.60
2019-03-06T22:53:59.710Z,3.60
2019-03-06T22:57:04.124Z,3.60
2019-03-06T23:00:33.556Z,3.60
2019-03-06T23:03:37.944Z,3.50
2019-03-06T23:06:42.217Z,3.60
2019-03-06T23:09:46.581Z,3.60
2019-03-06T23:12:51.290Z,3.50
2019-03-06T23:15:55.678Z,3.50
2019-03-06T23:19:00.041Z,3.60
2019-03-06T23:22:04.426Z,3.60
2019-03-06T23:25:08.774Z,3.60
2019-03-06T23:28:13.203Z,3.50
2019-03-06T23:31:17.572Z,3.60
2019-03-06T23:34:21.986Z,3.50
2019-03-06T23:37:26.324Z,3.50
2019-03-06T23:40:30.710Z,3.50
2019-03-06T23:43:35.051Z,3.50
2019-03-06T23:46:39.440Z,3.50
2019-03-06T23:49:43.717Z,3.50
2019-03-06T23:53:07.688Z,3.50
2019-03-06T23:56:12.023Z,3.50
2019-03-06T23:59:17.870Z,3.50
